sensor_id;sensor_type;location;lat;lon;timestamp;temperature;humidity
35607;DHT22;21729;58.392;15.656;2024-01-06T00:00:19;-16.40;99.90
35607;DHT22;21729;58.392;15.656;2024-01-06T00:02:46;-16.30;99.90
35607;DHT22;21729;58.392;15.656;2024-01-06T00:05:14;-16.20;99.90
35607;DHT22;21729;58.392;15.656;2024-01-06T00:07:41;-16.20;99.90
35607;DHT22;21729;58.392;15.656;2024-01-06T00:10:08;-16.30;99.90
35607;DHT22;21729;58.392;15.656;2024-01-06T00:12:35;-16.10;1.00
35607;DHT22;21729;58.392;15.656;2024-01-06T00:15:04;-16.10;99.90
35607;DHT22;21729;58.392;15.656;2024-01-06T00:17:32;-16.20;99.90
35607;DHT22;21729;58.392;15.656;2024-01-06T00:19:59;-16.20;99.90
35607;DHT22;21729;58.392;15.656;2024-01-06T00:22:28;-16.20;99.90
35607;DHT22;21729;58.392;15.656;2024-01-06T00:24:55;-16.30;99.90
35607;DHT22;21729;58.392;15.656;2024-01-06T00:27:22;-16.30;99.90
35607;DHT22;21729;58.392;15.656;2024-01-06T00:29:49;-16.30;1.00
35607;DHT22;21729;58.392;15.656;2024-01-06T00:32:18;-16.20;1.00
35607;DHT22;21729;58.392;15.656;2024-01-06T00:34:45;-16.20;99.90
35607;DHT22;21729;58.392;15.656;2024-01-06T00:37:13;-16.20;1.00
35607;DHT22;21729;58.392;15.656;2024-01-06T00:39:40;-16.10;1.00
35607;DHT22;21729;58.392;15.656;2024-01-06T00:42:07;-16.20;99.90
35607;DHT22;21729;58.392;15.656;2024-01-06T00:44:36;-16.20;99.90
35607;DHT22;21729;58.392;15.656;2024-01-06T00:47:03;-16.30;99.90
35607;DHT22;21729;58.392;15.656;2024-01-06T00:49:32;-16.30;99.90
35607;DHT22;21729;58.392;15.656;2024-01-06T00:52:01;-16.20;1.00
35607;DHT22;21729;58.392;15.656;2024-01-06T00:54:28;-16.20;99.90
35607;DHT22;21729;58.392;15.656;2024-01-06T00:56:55;-16.20;99.90
35607;DHT22;21729;58.392;15.656;2024-01-06T00:59:22;-16.30;99.90
35607;DHT22;21729;58.392;15.656;2024-01-06T01:01:49;-16.20;99.90
35607;DHT22;21729;58.392;15.656;2024-01-06T01:04:16;-16.10;99.90
35607;DHT22;21729;58.392;15.656;2024-01-06T01:06:44;-16.20;99.90
35607;DHT22;21729;58.392;15.656;2024-01-06T01:09:12;-16.10;99.90
35607;DHT22;21729;58.392;15.656;2024-01-06T01:11:39;-16.20;99.90
35607;DHT22;21729;58.392;15.656;2024-01-06T01:14:07;-16.30;99.90
35607;DHT22;21729;58.392;15.656;2024-01-06T01:16:34;-16.10;99.90
35607;DHT22;21729;58.392;15.656;2024-01-06T01:19:01;-16.30;99.90
35607;DHT22;21729;58.392;15.656;2024-01-06T01:21:28;-16.40;99.90
35607;DHT22;21729;58.392;15.656;2024-01-06T01:23:57;-16.40;99.90
35607;DHT22;21729;58.392;15.656;2024-01-06T01:26:24;-16.40;99.90
35607;DHT22;21729;58.392;15.656;2024-01-06T01:28:51;-16.30;99.90
35607;DHT22;21729;58.392;15.656;2024-01-06T01:31:18;-16.30;99.90
35607;DHT22;21729;58.392;15.656;2024-01-06T01:33:45;-16.40;99.90
35607;DHT22;21729;58.392;15.656;2024-01-06T01:36:13;-16.30;1.00
35607;DHT22;21729;58.392;15.656;2024-01-06T01:38:40;-16.30;99.90
35607;DHT22;21729;58.392;15.656;2024-01-06T01:41:08;-16.30;99.90
35607;DHT22;21729;58.392;15.656;2024-01-06T01:43:35;-16.40;99.90
35607;DHT22;21729;58.392;15.656;2024-01-06T01:46:03;-16.30;99.90
35607;DHT22;21729;58.392;15.656;2024-01-06T01:48:31;-16.30;99.90
35607;DHT22;21729;58.392;15.656;2024-01-06T01:51:00;-16.30;99.90
35607;DHT22;21729;58.392;15.656;2024-01-06T01:53:27;-16.50;99.90
35607;DHT22;21729;58.392;15.656;2024-01-06T01:55:54;-16.40;99.90
35607;DHT22;21729;58.392;15.656;2024-01-06T01:58:22;-16.40;99.90
35607;DHT22;21729;58.392;15.656;2024-01-06T02:00:50;-16.30;99.90
35607;DHT22;21729;58.392;15.656;2024-01-06T02:03:17;-16.30;99.90
35607;DHT22;21729;58.392;15.656;2024-01-06T02:05:44;-16.30;99.90
35607;DHT22;21729;58.392;15.656;2024-01-06T02:08:11;-16.30;99.90
35607;DHT22;21729;58.392;15.656;2024-01-06T02:10:39;-16.40;99.90
35607;DHT22;21729;58.392;15.656;2024-01-06T02:13:10;-16.50;99.90
35607;DHT22;21729;58.392;15.656;2024-01-06T02:15:39;-16.70;99.90
35607;DHT22;21729;58.392;15.656;2024-01-06T02:18:06;-16.50;99.90
35607;DHT22;21729;58.392;15.656;2024-01-06T02:20:33;-16.50;99.90
35607;DHT22;21729;58.392;15.656;2024-01-06T02:23:02;-16.50;99.90
35607;DHT22;21729;58.392;15.656;2024-01-06T02:25:29;-16.50;99.90
35607;DHT22;21729;58.392;15.656;2024-01-06T02:27:56;-16.50;99.90
35607;DHT22;21729;58.392;15.656;2024-01-06T02:30:23;-16.60;99.90
35607;DHT22;21729;58.392;15.656;2024-01-06T02:32:50;-16.60;99.90
35607;DHT22;21729;58.392;15.656;2024-01-06T02:35:17;-16.60;99.90
35607;DHT22;21729;58.392;15.656;2024-01-06T02:37:45;-16.60;99.90
35607;DHT22;21729;58.392;15.656;2024-01-06T02:40:14;-16.60;99.90
35607;DHT22;21729;58.392;15.656;2024-01-06T02:42:41;-16.60;99.90
35607;DHT22;21729;58.392;15.656;2024-01-06T02:45:08;-16.60;99.90
35607;DHT22;21729;58.392;15.656;2024-01-06T02:47:36;-16.60;99.90
35607;DHT22;21729;58.392;15.656;2024-01-06T02:50:03;-16.60;99.90
35607;DHT22;21729;58.392;15.656;2024-01-06T02:52:31;-16.60;99.90
35607;DHT22;21729;58.392;15.656;2024-01-06T02:54:58;-16.70;99.90
35607;DHT22;21729;58.392;15.656;2024-01-06T02:57:27;-16.80;99.90
35607;DHT22;21729;58.392;15.656;2024-01-06T02:59:55;-16.70;99.90
35607;DHT22;21729;58.392;15.656;2024-01-06T03:02:22;-16.80;99.90
35607;DHT22;21729;58.392;15.656;2024-01-06T03:04:49;-16.80;99.90
35607;DHT22;21729;58.392;15.656;2024-01-06T03:07:16;-16.70;99.90
35607;DHT22;21729;58.392;15.656;2024-01-06T03:09:43;-16.70;99.90
35607;DHT22;21729;58.392;15.656;2024-01-06T03:12:10;-16.70;99.90
35607;DHT22;21729;58.392;15.656;2024-01-06T03:14:38;-16.60;99.90
35607;DHT22;21729;58.392;15.656;2024-01-06T03:17:05;-16.70;99.90
35607;DHT22;21729;58.392;15.656;2024-01-06T03:19:32;-16.80;99.90
35607;DHT22;21729;58.392;15.656;2024-01-06T03:21:59;-16.90;99.90
35607;DHT22;21729;58.392;15.656;2024-01-06T03:24:27;-16.90;99.90
35607;DHT22;21729;58.392;15.656;2024-01-06T03:26:54;-16.90;99.90
35607;DHT22;21729;58.392;15.656;2024-01-06T03:29:21;-16.90;99.90
35607;DHT22;21729;58.392;15.656;2024-01-06T03:31:49;-16.80;99.90
35607;DHT22;21729;58.392;15.656;2024-01-06T03:34:16;-16.90;99.90
35607;DHT22;21729;58.392;15.656;2024-01-06T03:36:43;-16.80;99.90
35607;DHT22;21729;58.392;15.656;2024-01-06T03:39:10;-16.90;99.90
35607;DHT22;21729;58.392;15.656;2024-01-06T03:41:38;-16.90;99.90
35607;DHT22;21729;58.392;15.656;2024-01-06T03:44:06;-16.90;99.90
35607;DHT22;21729;58.392;15.656;2024-01-06T03:46:34;-17.00;99.90
35607;DHT22;21729;58.392;15.656;2024-01-06T03:49:03;-17.00;99.90
35607;DHT22;21729;58.392;15.656;2024-01-06T03:51:30;-17.00;99.90
35607;DHT22;21729;58.392;15.656;2024-01-06T03:53:56;-16.90;99.90
35607;DHT22;21729;58.392;15.656;2024-01-06T03:56:23;-17.00;99.90
35607;DHT22;21729;58.392;15.656;2024-01-06T03:58:50;-17.00;99.90
35607;DHT22;21729;58.392;15.656;2024-01-06T04:01:17;-17.10;99.90
35607;DHT22;21729;58.392;15.656;2024-01-06T04:03:44;-17.00;99.90
35607;DHT22;21729;58.392;15.656;2024-01-06T04:06:13;-17.00;99.90
35607;DHT22;21729;58.392;15.656;2024-01-06T04:08:40;-16.90;99.90
35607;DHT22;21729;58.392;15.656;2024-01-06T04:11:07;-17.00;99.90
35607;DHT22;21729;58.392;15.656;2024-01-06T04:13:34;-17.00;99.90
35607;DHT22;21729;58.392;15.656;2024-01-06T04:16:01;-17.10;99.90
35607;DHT22;21729;58.392;15.656;2024-01-06T04:18:29;-17.00;99.90
35607;DHT22;21729;58.392;15.656;2024-01-06T04:20:56;-17.30;99.90
35607;DHT22;21729;58.392;15.656;2024-01-06T04:23:24;-17.30;99.90
35607;DHT22;21729;58.392;15.656;2024-01-06T04:25:51;-17.20;99.90
35607;DHT22;21729;58.392;15.656;2024-01-06T04:28:19;-17.20;99.90
35607;DHT22;21729;58.392;15.656;2024-01-06T04:30:46;-17.10;99.90
35607;DHT22;21729;58.392;15.656;2024-01-06T04:33:13;-17.10;99.90
35607;DHT22;21729;58.392;15.656;2024-01-06T04:35:40;-17.10;99.90
35607;DHT22;21729;58.392;15.656;2024-01-06T04:38:07;-17.00;99.90
35607;DHT22;21729;58.392;15.656;2024-01-06T04:40:36;-17.00;99.90
35607;DHT22;21729;58.392;15.656;2024-01-06T04:43:03;-17.00;99.90
35607;DHT22;21729;58.392;15.656;2024-01-06T04:45:30;-16.90;99.90
35607;DHT22;21729;58.392;15.656;2024-01-06T04:47:57;-17.00;99.90
35607;DHT22;21729;58.392;15.656;2024-01-06T04:50:24;-17.00;99.90
35607;DHT22;21729;58.392;15.656;2024-01-06T04:52:51;-17.00;99.90
35607;DHT22;21729;58.392;15.656;2024-01-06T04:55:18;-17.10;99.90
35607;DHT22;21729;58.392;15.656;2024-01-06T04:57:48;-17.10;99.90
35607;DHT22;21729;58.392;15.656;2024-01-06T05:00:15;-17.20;99.90
35607;DHT22;21729;58.392;15.656;2024-01-06T05:02:43;-17.10;99.90
35607;DHT22;21729;58.392;15.656;2024-01-06T05:05:10;-16.70;99.90
35607;DHT22;21729;58.392;15.656;2024-01-06T05:07:37;-17.00;99.90
35607;DHT22;21729;58.392;15.656;2024-01-06T05:10:05;-17.00;99.90
35607;DHT22;21729;58.392;15.656;2024-01-06T05:12:32;-17.00;99.90
35607;DHT22;21729;58.392;15.656;2024-01-06T05:15:01;-17.00;99.90
35607;DHT22;21729;58.392;15.656;2024-01-06T05:17:28;-17.10;99.90
35607;DHT22;21729;58.392;15.656;2024-01-06T05:19:55;-17.10;99.90
35607;DHT22;21729;58.392;15.656;2024-01-06T05:22:22;-17.10;99.90
35607;DHT22;21729;58.392;15.656;2024-01-06T05:24:49;-17.20;99.90
35607;DHT22;21729;58.392;15.656;2024-01-06T05:27:19;-17.30;99.90
35607;DHT22;21729;58.392;15.656;2024-01-06T05:29:46;-17.30;99.90
35607;DHT22;21729;58.392;15.656;2024-01-06T05:32:16;-17.30;99.90
35607;DHT22;21729;58.392;15.656;2024-01-06T05:34:43;-17.20;99.90
35607;DHT22;21729;58.392;15.656;2024-01-06T05:37:11;-17.20;99.90
35607;DHT22;21729;58.392;15.656;2024-01-06T05:39:38;-17.20;99.90
35607;DHT22;21729;58.392;15.656;2024-01-06T05:42:06;-17.20;99.90
35607;DHT22;21729;58.392;15.656;2024-01-06T05:44:35;-17.10;99.90
35607;DHT22;21729;58.392;15.656;2024-01-06T05:47:03;-17.20;99.90
35607;DHT22;21729;58.392;15.656;2024-01-06T05:49:32;-17.20;99.90
35607;DHT22;21729;58.392;15.656;2024-01-06T05:51:59;-17.10;99.90
35607;DHT22;21729;58.392;15.656;2024-01-06T05:54:26;-17.20;99.90
35607;DHT22;21729;58.392;15.656;2024-01-06T05:56:53;-17.20;99.90
35607;DHT22;21729;58.392;15.656;2024-01-06T05:59:20;-17.20;99.90
35607;DHT22;21729;58.392;15.656;2024-01-06T06:01:47;-17.20;99.90
35607;DHT22;21729;58.392;15.656;2024-01-06T06:04:14;-17.20;99.90
35607;DHT22;21729;58.392;15.656;2024-01-06T06:06:42;-17.20;99.90
35607;DHT22;21729;58.392;15.656;2024-01-06T06:09:10;-17.30;99.90
35607;DHT22;21729;58.392;15.656;2024-01-06T06:11:38;-17.40;99.90
35607;DHT22;21729;58.392;15.656;2024-01-06T06:14:05;-17.40;99.90
35607;DHT22;21729;58.392;15.656;2024-01-06T06:16:32;-17.40;99.90
35607;DHT22;21729;58.392;15.656;2024-01-06T06:18:59;-17.30;99.90
35607;DHT22;21729;58.392;15.656;2024-01-06T06:21:26;-17.30;99.90
35607;DHT22;21729;58.392;15.656;2024-01-06T06:23:55;-17.30;99.90
35607;DHT22;21729;58.392;15.656;2024-01-06T06:26:22;-17.30;99.90
35607;DHT22;21729;58.392;15.656;2024-01-06T06:28:49;-17.20;99.90
35607;DHT22;21729;58.392;15.656;2024-01-06T06:31:16;-17.20;99.90
35607;DHT22;21729;58.392;15.656;2024-01-06T06:33:43;-17.20;99.90
35607;DHT22;21729;58.392;15.656;2024-01-06T06:36:10;-17.20;99.90
35607;DHT22;21729;58.392;15.656;2024-01-06T06:38:37;-17.10;99.90
35607;DHT22;21729;58.392;15.656;2024-01-06T06:41:05;-17.00;99.90
35607;DHT22;21729;58.392;15.656;2024-01-06T06:43:32;-17.00;99.90
35607;DHT22;21729;58.392;15.656;2024-01-06T06:45:59;-17.10;99.90
35607;DHT22;21729;58.392;15.656;2024-01-06T06:48:26;-17.10;99.90
35607;DHT22;21729;58.392;15.656;2024-01-06T06:50:53;-17.20;99.90
35607;DHT22;21729;58.392;15.656;2024-01-06T06:53:21;-17.10;99.90
35607;DHT22;21729;58.392;15.656;2024-01-06T06:55:48;-17.10;99.90
35607;DHT22;21729;58.392;15.656;2024-01-06T06:58:16;-17.40;99.90
35607;DHT22;21729;58.392;15.656;2024-01-06T07:00:43;-17.20;99.90
35607;DHT22;21729;58.392;15.656;2024-01-06T07:03:10;-17.10;99.90
35607;DHT22;21729;58.392;15.656;2024-01-06T07:05:38;-17.40;99.90
35607;DHT22;21729;58.392;15.656;2024-01-06T07:08:06;-17.30;99.90
35607;DHT22;21729;58.392;15.656;2024-01-06T07:10:33;-17.50;99.90
35607;DHT22;21729;58.392;15.656;2024-01-06T07:13:00;-17.60;99.90
35607;DHT22;21729;58.392;15.656;2024-01-06T07:15:28;-17.60;99.90
35607;DHT22;21729;58.392;15.656;2024-01-06T07:17:55;-17.70;99.90
35607;DHT22;21729;58.392;15.656;2024-01-06T07:20:23;-17.60;99.90
35607;DHT22;21729;58.392;15.656;2024-01-06T07:22:50;-17.80;99.90
35607;DHT22;21729;58.392;15.656;2024-01-06T07:25:17;-17.70;99.90
35607;DHT22;21729;58.392;15.656;2024-01-06T07:27:44;-17.70;99.90
35607;DHT22;21729;58.392;15.656;2024-01-06T07:30:12;-17.70;99.90
35607;DHT22;21729;58.392;15.656;2024-01-06T07:32:40;-17.60;99.90
35607;DHT22;21729;58.392;15.656;2024-01-06T07:35:08;-17.40;99.90
35607;DHT22;21729;58.392;15.656;2024-01-06T07:37:35;-17.50;99.90
35607;DHT22;21729;58.392;15.656;2024-01-06T07:40:02;-17.60;99.90
35607;DHT22;21729;58.392;15.656;2024-01-06T07:42:29;-17.50;99.90
35607;DHT22;21729;58.392;15.656;2024-01-06T07:44:57;-17.70;99.90
35607;DHT22;21729;58.392;15.656;2024-01-06T07:47:24;-17.60;99.90
35607;DHT22;21729;58.392;15.656;2024-01-06T07:49:53;-17.60;99.90
35607;DHT22;21729;58.392;15.656;2024-01-06T07:52:20;-17.60;99.90
35607;DHT22;21729;58.392;15.656;2024-01-06T07:54:47;-17.50;99.90
35607;DHT22;21729;58.392;15.656;2024-01-06T07:57:14;-17.50;99.90
35607;DHT22;21729;58.392;15.656;2024-01-06T07:59:41;-17.40;99.90
35607;DHT22;21729;58.392;15.656;2024-01-06T08:02:08;-17.40;99.90
35607;DHT22;21729;58.392;15.656;2024-01-06T08:04:35;-17.30;99.90
35607;DHT22;21729;58.392;15.656;2024-01-06T08:07:04;-17.20;99.90
35607;DHT22;21729;58.392;15.656;2024-01-06T08:09:34;-17.10;99.90
35607;DHT22;21729;58.392;15.656;2024-01-06T08:12:01;-17.10;99.90
35607;DHT22;21729;58.392;15.656;2024-01-06T08:14:29;-16.90;99.90
35607;DHT22;21729;58.392;15.656;2024-01-06T08:16:56;-16.90;99.90
35607;DHT22;21729;58.392;15.656;2024-01-06T08:19:23;-16.60;99.90
35607;DHT22;21729;58.392;15.656;2024-01-06T08:21:51;-16.90;99.90
35607;DHT22;21729;58.392;15.656;2024-01-06T08:24:20;-16.80;99.90
35607;DHT22;21729;58.392;15.656;2024-01-06T08:26:47;-17.00;99.90
35607;DHT22;21729;58.392;15.656;2024-01-06T08:29:14;-17.10;99.90
35607;DHT22;21729;58.392;15.656;2024-01-06T08:31:42;-17.10;99.90
35607;DHT22;21729;58.392;15.656;2024-01-06T08:34:09;-17.10;99.90
35607;DHT22;21729;58.392;15.656;2024-01-06T08:36:36;-17.10;99.90
35607;DHT22;21729;58.392;15.656;2024-01-06T08:39:03;-16.90;99.90
35607;DHT22;21729;58.392;15.656;2024-01-06T08:41:32;-16.80;99.90
35607;DHT22;21729;58.392;15.656;2024-01-06T08:43:59;-16.80;99.90
35607;DHT22;21729;58.392;15.656;2024-01-06T08:46:26;-16.70;99.90
35607;DHT22;21729;58.392;15.656;2024-01-06T08:48:53;-16.70;99.90
35607;DHT22;21729;58.392;15.656;2024-01-06T08:51:20;-16.70;99.90
35607;DHT22;21729;58.392;15.656;2024-01-06T08:53:47;-16.60;99.90
35607;DHT22;21729;58.392;15.656;2024-01-06T08:56:14;-16.50;99.90
35607;DHT22;21729;58.392;15.656;2024-01-06T08:58:44;-16.40;99.90
35607;DHT22;21729;58.392;15.656;2024-01-06T09:01:12;-16.30;99.90
35607;DHT22;21729;58.392;15.656;2024-01-06T09:03:39;-16.30;99.90
35607;DHT22;21729;58.392;15.656;2024-01-06T09:06:06;-16.30;99.90
35607;DHT22;21729;58.392;15.656;2024-01-06T09:08:33;-16.20;99.90
35607;DHT22;21729;58.392;15.656;2024-01-06T09:11:00;-16.10;99.90
35607;DHT22;21729;58.392;15.656;2024-01-06T09:13:28;-16.00;99.90
35607;DHT22;21729;58.392;15.656;2024-01-06T09:15:56;-15.80;99.90
35607;DHT22;21729;58.392;15.656;2024-01-06T09:18:23;-15.70;99.90
35607;DHT22;21729;58.392;15.656;2024-01-06T09:20:50;-15.70;99.90
35607;DHT22;21729;58.392;15.656;2024-01-06T09:23:17;-15.60;99.90
35607;DHT22;21729;58.392;15.656;2024-01-06T09:25:44;-15.50;99.90
35607;DHT22;21729;58.392;15.656;2024-01-06T09:28:11;-15.40;99.90
35607;DHT22;21729;58.392;15.656;2024-01-06T09:30:38;-15.30;99.90
35607;DHT22;21729;58.392;15.656;2024-01-06T09:33:07;-15.10;99.90
35607;DHT22;21729;58.392;15.656;2024-01-06T09:35:34;-14.90;99.90
35607;DHT22;21729;58.392;15.656;2024-01-06T09:38:02;-14.90;99.90
35607;DHT22;21729;58.392;15.656;2024-01-06T09:40:31;-14.60;99.90
35607;DHT22;21729;58.392;15.656;2024-01-06T09:42:58;-14.00;99.90
35607;DHT22;21729;58.392;15.656;2024-01-06T09:45:25;-13.10;99.90
35607;DHT22;21729;58.392;15.656;2024-01-06T09:47:53;-13.20;99.90
35607;DHT22;21729;58.392;15.656;2024-01-06T09:50:22;-13.40;99.90
35607;DHT22;21729;58.392;15.656;2024-01-06T09:52:49;-14.20;99.90
35607;DHT22;21729;58.392;15.656;2024-01-06T09:55:23;-14.30;99.90
35607;DHT22;21729;58.392;15.656;2024-01-06T09:57:52;-14.60;99.90
35607;DHT22;21729;58.392;15.656;2024-01-06T10:00:19;-14.40;99.90
35607;DHT22;21729;58.392;15.656;2024-01-06T10:02:47;-14.30;99.90
35607;DHT22;21729;58.392;15.656;2024-01-06T10:05:15;-14.20;99.90
35607;DHT22;21729;58.392;15.656;2024-01-06T10:07:45;-14.10;99.90
35607;DHT22;21729;58.392;15.656;2024-01-06T10:10:12;-14.10;99.90
35607;DHT22;21729;58.392;15.656;2024-01-06T10:12:39;-13.90;99.90
35607;DHT22;21729;58.392;15.656;2024-01-06T10:15:07;-13.80;99.90
35607;DHT22;21729;58.392;15.656;2024-01-06T10:17:36;-13.80;99.90
35607;DHT22;21729;58.392;15.656;2024-01-06T10:20:07;-13.70;99.90
35607;DHT22;21729;58.392;15.656;2024-01-06T10:22:35;-13.60;99.90
35607;DHT22;21729;58.392;15.656;2024-01-06T10:25:05;-13.50;99.90
35607;DHT22;21729;58.392;15.656;2024-01-06T10:27:34;-13.20;99.90
35607;DHT22;21729;58.392;15.656;2024-01-06T10:30:01;-13.40;99.90
35607;DHT22;21729;58.392;15.656;2024-01-06T10:32:31;-13.40;99.90
35607;DHT22;21729;58.392;15.656;2024-01-06T10:34:58;-13.30;99.90
35607;DHT22;21729;58.392;15.656;2024-01-06T10:37:27;-13.30;99.90
35607;DHT22;21729;58.392;15.656;2024-01-06T10:40:07;-13.10;99.90
35607;DHT22;21729;58.392;15.656;2024-01-06T10:42:36;-13.10;99.90
35607;DHT22;21729;58.392;15.656;2024-01-06T10:45:07;-13.10;99.90
35607;DHT22;21729;58.392;15.656;2024-01-06T10:47:35;-13.10;99.90
35607;DHT22;21729;58.392;15.656;2024-01-06T10:50:06;-13.10;99.90
35607;DHT22;21729;58.392;15.656;2024-01-06T10:52:34;-13.10;99.90
35607;DHT22;21729;58.392;15.656;2024-01-06T10:55:02;-13.10;99.90
35607;DHT22;21729;58.392;15.656;2024-01-06T10:57:31;-13.00;99.90
35607;DHT22;21729;58.392;15.656;2024-01-06T10:59:59;-13.00;99.90
35607;DHT22;21729;58.392;15.656;2024-01-06T11:02:27;-13.00;99.90
35607;DHT22;21729;58.392;15.656;2024-01-06T11:04:54;-13.00;1.00
35607;DHT22;21729;58.392;15.656;2024-01-06T11:07:24;-12.90;99.90
35607;DHT22;21729;58.392;15.656;2024-01-06T11:09:56;-12.90;99.90
35607;DHT22;21729;58.392;15.656;2024-01-06T11:12:25;-12.80;99.90
35607;DHT22;21729;58.392;15.656;2024-01-06T11:14:54;-12.80;99.90
35607;DHT22;21729;58.392;15.656;2024-01-06T11:17:48;-13.10;99.90
35607;DHT22;21729;58.392;15.656;2024-01-06T11:20:16;-12.70;99.90
35607;DHT22;21729;58.392;15.656;2024-01-06T11:22:43;-12.60;99.90
35607;DHT22;21729;58.392;15.656;2024-01-06T11:25:14;-12.60;99.90
35607;DHT22;21729;58.392;15.656;2024-01-06T11:27:43;-12.50;99.90
35607;DHT22;21729;58.392;15.656;2024-01-06T11:30:21;-12.40;99.90
35607;DHT22;21729;58.392;15.656;2024-01-06T11:32:49;-12.30;99.90
35607;DHT22;21729;58.392;15.656;2024-01-06T11:35:19;-12.30;99.90
35607;DHT22;21729;58.392;15.656;2024-01-06T11:37:54;-12.30;99.90
35607;DHT22;21729;58.392;15.656;2024-01-06T11:40:25;-12.40;99.90
35607;DHT22;21729;58.392;15.656;2024-01-06T11:43:01;-12.40;99.90
35607;DHT22;21729;58.392;15.656;2024-01-06T11:45:30;-12.40;99.90
35607;DHT22;21729;58.392;15.656;2024-01-06T11:47:59;-12.30;99.90
35607;DHT22;21729;58.392;15.656;2024-01-06T11:50:28;-12.40;99.90
35607;DHT22;21729;58.392;15.656;2024-01-06T11:52:55;-12.30;99.90
35607;DHT22;21729;58.392;15.656;2024-01-06T11:55:22;-12.40;99.90
35607;DHT22;21729;58.392;15.656;2024-01-06T11:57:50;-12.50;99.90
35607;DHT22;21729;58.392;15.656;2024-01-06T12:00:17;-12.50;1.00
35607;DHT22;21729;58.392;15.656;2024-01-06T12:02:46;-12.50;99.90
35607;DHT22;21729;58.392;15.656;2024-01-06T12:05:14;-12.50;99.90
35607;DHT22;21729;58.392;15.656;2024-01-06T12:07:42;-12.60;99.90
35607;DHT22;21729;58.392;15.656;2024-01-06T12:10:09;-12.60;99.90
35607;DHT22;21729;58.392;15.656;2024-01-06T12:12:37;-12.50;99.90
35607;DHT22;21729;58.392;15.656;2024-01-06T12:15:05;-12.60;99.90
35607;DHT22;21729;58.392;15.656;2024-01-06T12:17:35;-12.60;99.90
35607;DHT22;21729;58.392;15.656;2024-01-06T12:20:04;-12.60;1.00
35607;DHT22;21729;58.392;15.656;2024-01-06T12:22:34;-12.60;1.00
35607;DHT22;21729;58.392;15.656;2024-01-06T12:25:03;-12.50;1.00
35607;DHT22;21729;58.392;15.656;2024-01-06T12:27:32;-12.50;1.00
35607;DHT22;21729;58.392;15.656;2024-01-06T12:29:59;-12.40;1.00
35607;DHT22;21729;58.392;15.656;2024-01-06T12:32:26;-12.40;1.00
35607;DHT22;21729;58.392;15.656;2024-01-06T12:34:54;-12.50;1.00
35607;DHT22;21729;58.392;15.656;2024-01-06T12:37:24;-12.40;1.00
35607;DHT22;21729;58.392;15.656;2024-01-06T12:39:51;-12.40;1.00
35607;DHT22;21729;58.392;15.656;2024-01-06T12:42:18;-12.40;1.00
35607;DHT22;21729;58.392;15.656;2024-01-06T12:44:47;-12.40;1.00
35607;DHT22;21729;58.392;15.656;2024-01-06T12:47:14;-12.40;1.00
35607;DHT22;21729;58.392;15.656;2024-01-06T12:49:42;-12.40;1.00
35607;DHT22;21729;58.392;15.656;2024-01-06T12:52:09;-12.40;1.00
35607;DHT22;21729;58.392;15.656;2024-01-06T12:54:39;-12.50;1.00
35607;DHT22;21729;58.392;15.656;2024-01-06T12:57:07;-12.40;1.00
35607;DHT22;21729;58.392;15.656;2024-01-06T12:59:35;-12.50;1.00
35607;DHT22;21729;58.392;15.656;2024-01-06T13:02:02;-12.40;1.00
35607;DHT22;21729;58.392;15.656;2024-01-06T13:04:29;-12.40;1.00
35607;DHT22;21729;58.392;15.656;2024-01-06T13:06:56;-12.50;1.00
35607;DHT22;21729;58.392;15.656;2024-01-06T13:09:24;-12.60;1.00
35607;DHT22;21729;58.392;15.656;2024-01-06T13:11:53;-12.50;1.00
35607;DHT22;21729;58.392;15.656;2024-01-06T13:14:21;-12.60;1.00
35607;DHT22;21729;58.392;15.656;2024-01-06T13:16:48;-12.50;1.00
35607;DHT22;21729;58.392;15.656;2024-01-06T13:19:16;-12.50;1.00
35607;DHT22;21729;58.392;15.656;2024-01-06T13:21:43;-12.40;1.00
35607;DHT22;21729;58.392;15.656;2024-01-06T13:24:10;-12.60;1.00
35607;DHT22;21729;58.392;15.656;2024-01-06T13:26:38;-12.50;1.00
35607;DHT22;21729;58.392;15.656;2024-01-06T13:29:06;-12.50;1.00
35607;DHT22;21729;58.392;15.656;2024-01-06T13:31:33;-12.50;1.00
35607;DHT22;21729;58.392;15.656;2024-01-06T13:34:00;-12.60;1.00
35607;DHT22;21729;58.392;15.656;2024-01-06T13:36:27;-12.60;1.00
35607;DHT22;21729;58.392;15.656;2024-01-06T13:38:55;-12.60;1.00
35607;DHT22;21729;58.392;15.656;2024-01-06T13:41:22;-12.70;1.00
35607;DHT22;21729;58.392;15.656;2024-01-06T13:43:49;-12.80;1.00
35607;DHT22;21729;58.392;15.656;2024-01-06T13:46:18;-12.80;1.00
35607;DHT22;21729;58.392;15.656;2024-01-06T13:48:45;-12.80;1.00
35607;DHT22;21729;58.392;15.656;2024-01-06T13:51:12;-12.90;1.00
35607;DHT22;21729;58.392;15.656;2024-01-06T13:53:39;-12.90;1.00
35607;DHT22;21729;58.392;15.656;2024-01-06T13:56:06;-12.90;1.00
35607;DHT22;21729;58.392;15.656;2024-01-06T13:58:33;-13.00;1.00
35607;DHT22;21729;58.392;15.656;2024-01-06T14:01:01;-13.00;1.00
35607;DHT22;21729;58.392;15.656;2024-01-06T14:03:30;-13.10;1.00
35607;DHT22;21729;58.392;15.656;2024-01-06T14:05:57;-13.10;1.00
35607;DHT22;21729;58.392;15.656;2024-01-06T14:08:25;-13.20;1.00
35607;DHT22;21729;58.392;15.656;2024-01-06T14:10:52;-13.20;1.00
35607;DHT22;21729;58.392;15.656;2024-01-06T14:13:19;-13.20;1.00
35607;DHT22;21729;58.392;15.656;2024-01-06T14:15:46;-13.30;1.00
35607;DHT22;21729;58.392;15.656;2024-01-06T14:18:13;-13.30;1.00
35607;DHT22;21729;58.392;15.656;2024-01-06T14:20:43;-13.40;1.00
35607;DHT22;21729;58.392;15.656;2024-01-06T14:23:10;-13.40;1.00
35607;DHT22;21729;58.392;15.656;2024-01-06T14:25:37;-13.50;1.00
35607;DHT22;21729;58.392;15.656;2024-01-06T14:28:05;-13.50;1.00
35607;DHT22;21729;58.392;15.656;2024-01-06T14:30:32;-13.60;1.00
35607;DHT22;21729;58.392;15.656;2024-01-06T14:32:59;-13.60;1.00
35607;DHT22;21729;58.392;15.656;2024-01-06T14:35:26;-13.60;1.00
35607;DHT22;21729;58.392;15.656;2024-01-06T14:37:55;-13.70;1.00
35607;DHT22;21729;58.392;15.656;2024-01-06T14:40:22;-13.80;1.00
35607;DHT22;21729;58.392;15.656;2024-01-06T14:42:50;-13.80;1.00
35607;DHT22;21729;58.392;15.656;2024-01-06T14:45:17;-13.80;1.00
35607;DHT22;21729;58.392;15.656;2024-01-06T14:47:45;-13.80;1.00
35607;DHT22;21729;58.392;15.656;2024-01-06T14:50:12;-13.80;1.00
35607;DHT22;21729;58.392;15.656;2024-01-06T14:52:39;-13.90;1.00
35607;DHT22;21729;58.392;15.656;2024-01-06T14:55:08;-13.90;1.00
35607;DHT22;21729;58.392;15.656;2024-01-06T14:57:35;-13.90;1.00
35607;DHT22;21729;58.392;15.656;2024-01-06T15:00:03;-14.00;1.00
35607;DHT22;21729;58.392;15.656;2024-01-06T15:02:30;-14.00;1.00
35607;DHT22;21729;58.392;15.656;2024-01-06T15:04:57;-13.90;1.00
35607;DHT22;21729;58.392;15.656;2024-01-06T15:07:25;-14.00;1.00